createdAt,value
2022-09-29T00:02:04.508Z,31.9
2022-09-29T00:04:06.571Z,21.4
2022-09-29T00:06:08.651Z,16.6
2022-09-29T00:08:10.730Z,17
2022-09-29T00:10:12.818Z,21.8
2022-09-29T00:12:14.903Z,22.1
2022-09-29T00:16:22.394Z,23.6
2022-09-29T00:18:24.410Z,24
2022-09-29T00:22:28.597Z,24.2
2022-09-29T00:24:30.674Z,20.7
2022-09-29T00:26:32.759Z,23.1
2022-09-29T00:28:34.839Z,21.8
2022-09-29T00:30:40.175Z,23.3
2022-09-29T00:32:42.308Z,22.2
2022-09-29T00:34:44.335Z,29.4
2022-09-29T00:38:48.507Z,23.8
2022-09-29T00:40:50.685Z,25.2
2022-09-29T00:42:52.659Z,28.2
2022-09-29T00:44:58.018Z,24.7
2022-09-29T00:49:02.159Z,27.4
2022-09-29T00:50:04.841Z,26
2022-09-29T00:52:06.913Z,29.3
2022-09-29T00:54:08.996Z,31.6
2022-09-29T00:56:11.097Z,37.3
2022-09-29T00:58:16.360Z,25.8
2022-09-29T01:00:18.467Z,35.2
2022-09-29T01:02:20.614Z,27.7
2022-09-29T01:04:22.652Z,21.4
2022-09-29T01:06:24.689Z,26.8
2022-09-29T01:08:26.764Z,22.5
2022-09-29T01:10:28.845Z,32.6
2022-09-29T01:12:34.168Z,34
2022-09-29T01:14:36.232Z,23.6
2022-09-29T01:16:38.412Z,24.7
2022-09-29T01:18:40.395Z,21.8
2022-09-29T01:20:42.444Z,36.5
2022-09-29T01:22:44.527Z,23.9
2022-09-29T01:28:53.979Z,26.1
2022-09-29T01:30:56.067Z,24
2022-09-29T01:32:58.135Z,30.2
2022-09-29T01:35:01.759Z,27.6
2022-09-29T01:37:03.788Z,32.4
2022-09-29T01:39:05.860Z,30.1
2022-09-29T01:41:11.175Z,26.1
2022-09-29T01:43:13.224Z,28.8
2022-09-29T01:45:15.301Z,31.9
2022-09-29T01:53:53.624Z,29.3
2022-09-29T01:55:55.677Z,27
2022-09-29T01:59:59.790Z,27.5
2022-09-29T02:02:01.894Z,26.2
2022-09-29T02:04:03.917Z,29.4
2022-09-29T02:06:06.012Z,30.7
2022-09-29T02:08:11.303Z,26.2
2022-09-29T02:10:13.348Z,27
2022-09-29T02:12:15.401Z,34.3
2022-09-29T02:14:17.558Z,27.4
2022-09-29T02:16:19.593Z,24.7
2022-09-29T02:18:21.596Z,27.8
2022-09-29T02:20:23.654Z,30.1
2022-09-29T02:22:28.939Z,28.2
2022-09-29T02:24:31.028Z,29.2
2022-09-29T02:26:33.078Z,22.3
2022-09-29T02:28:35.132Z,28.1
2022-09-29T02:30:37.170Z,24.9
2022-09-29T02:34:41.310Z,23.6
2022-09-29T02:40:50.777Z,19.1
2022-09-29T02:41:53.359Z,24.6
2022-09-29T02:43:55.421Z,28.6
2022-09-29T02:45:57.620Z,25.6
2022-09-29T02:47:59.532Z,22.3
2022-09-29T02:50:04.810Z,24.9
2022-09-29T02:52:06.918Z,23.4
2022-09-29T02:54:08.959Z,23.9
2022-09-29T02:56:11.023Z,19.6
2022-09-29T02:58:13.069Z,29.8
2022-09-29T03:00:15.129Z,25.8
2022-09-29T03:02:17.204Z,25
2022-09-29T03:04:22.473Z,22.4
2022-09-29T03:06:24.535Z,25.4
2022-09-29T03:08:26.559Z,23.2
2022-09-29T03:10:30.311Z,31.4
2022-09-29T03:12:30.677Z,25.8
2022-09-29T03:14:32.703Z,22.3
2022-09-29T03:16:34.821Z,22.9
2022-09-29T03:18:40.032Z,28
2022-09-29T03:20:42.081Z,20.8
2022-09-29T03:22:44.206Z,24.1
2022-09-29T03:24:46.165Z,28.9
2022-09-29T03:26:48.213Z,27.7
2022-09-29T03:28:50.266Z,23.6
2022-09-29T03:30:52.335Z,20.9
2022-09-29T03:32:57.586Z,29.7
2022-09-29T03:34:59.645Z,22
2022-09-29T03:37:01.664Z,22.1
2022-09-29T03:38:02.237Z,24.2
2022-09-29T03:40:04.204Z,26.3
2022-09-29T03:42:06.234Z,23.2
2022-09-29T03:44:08.280Z,27.7
2022-09-29T03:46:13.639Z,23.2
2022-09-29T03:48:15.616Z,25.8
2022-09-29T03:50:17.621Z,43.8
2022-09-29T03:52:19.666Z,25.5
2022-09-29T03:54:21.733Z,24.5
2022-09-29T03:56:23.784Z,21.4
2022-09-29T03:58:25.806Z,27.8
2022-09-29T04:00:31.105Z,24
2022-09-29T04:02:33.120Z,31.4
2022-09-29T04:04:35.145Z,21.1
2022-09-29T04:06:37.168Z,22.3
2022-09-29T04:08:39.238Z,25.6
2022-09-29T04:10:41.264Z,22
2022-09-29T04:12:43.297Z,26
2022-09-29T04:14:48.564Z,23.5
2022-09-29T04:16:50.612Z,29
2022-09-29T04:18:52.643Z,21.1
2022-09-29T04:20:54.678Z,24.2
2022-09-29T04:22:56.686Z,21.2
2022-09-29T04:24:58.737Z,21.5
2022-09-29T04:27:00.756Z,20.1
2022-09-29T04:29:06.028Z,19.3
2022-09-29T04:31:08.263Z,19.6
2022-09-29T04:33:10.069Z,21
2022-09-29T04:34:12.708Z,23
2022-09-29T04:36:14.720Z,15.9
2022-09-29T04:40:18.823Z,17.9
2022-09-29T04:42:24.108Z,19.4
2022-09-29T04:44:26.118Z,23.4
2022-09-29T04:46:28.125Z,17.8
2022-09-29T04:48:34.888Z,17.8
2022-09-29T04:50:32.171Z,17.6
2022-09-29T04:52:34.172Z,26.1
2022-09-29T04:56:41.483Z,21.4
2022-09-29T04:58:43.513Z,18.3
2022-09-29T05:00:45.580Z,17.2
2022-09-29T05:02:49.821Z,17.5
2022-09-29T05:04:49.576Z,21.4
2022-09-29T05:06:51.608Z,21.2
2022-09-29T05:08:53.611Z,18.6
2022-09-29T05:13:00.906Z,20
2022-09-29T05:15:02.928Z,22
2022-09-29T05:17:04.950Z,24.6
2022-09-29T05:19:06.949Z,18.3
2022-09-29T05:21:26.674Z,20.1
2022-09-29T05:23:11.021Z,25.2
2022-09-29T05:25:16.259Z,22.4
2022-09-29T05:27:18.270Z,25.9
2022-09-29T05:29:20.492Z,29.5
2022-09-29T05:33:51.227Z,32.2
2022-09-29T05:35:53.257Z,28.9
2022-09-29T05:40:00.503Z,32.5
2022-09-29T05:42:02.545Z,37.1
2022-09-29T05:44:04.486Z,34.6
2022-09-29T05:50:10.522Z,34.2
2022-09-29T05:52:15.767Z,33.3
2022-09-29T05:54:17.784Z,39.8
2022-09-29T05:56:19.785Z,37.3
2022-09-29T05:58:21.796Z,35
2022-09-29T06:00:23.802Z,34.4
2022-09-29T06:02:25.839Z,32.9
2022-09-29T06:04:27.808Z,38.1
2022-09-29T06:06:33.077Z,28.8
2022-09-29T06:08:35.090Z,40.7
2022-09-29T06:10:37.109Z,34.9
2022-09-29T06:12:39.091Z,30.5
2022-09-29T06:14:41.111Z,27.6
2022-09-29T06:16:43.189Z,33.7
2022-09-29T06:18:45.108Z,35.4
2022-09-29T06:20:50.335Z,37.9
2022-09-29T06:22:52.342Z,39.8
2022-09-29T06:24:54.362Z,37.1
2022-09-29T06:25:56.984Z,36.1
2022-09-29T06:27:59.625Z,31.5
2022-09-29T06:30:01.638Z,45
2022-09-29T06:32:03.731Z,34.2
2022-09-29T06:34:08.878Z,36.7
2022-09-29T06:40:14.927Z,43.3
2022-09-29T06:42:16.962Z,40.3
2022-09-29T06:44:19.001Z,42.2
2022-09-29T06:46:21.089Z,48.2
2022-09-29T06:48:26.242Z,35.4
2022-09-29T06:50:28.298Z,39.3
2022-09-29T06:52:30.327Z,43
2022-09-29T06:54:32.346Z,41.7
2022-09-29T06:56:34.586Z,53.3
2022-09-29T06:58:36.434Z,33.3
2022-09-29T07:00:38.524Z,32.2
2022-09-29T07:02:43.756Z,51.1
2022-09-29T07:04:45.791Z,33.2
2022-09-29T07:06:47.853Z,41.8
2022-09-29T07:08:49.890Z,34.5
2022-09-29T07:10:51.935Z,36.1
2022-09-29T07:12:53.961Z,45
2022-09-29T07:14:56.031Z,36.9
2022-09-29T07:17:01.318Z,35.6
2022-09-29T07:19:03.375Z,29.1
2022-09-29T07:21:05.462Z,30.1
2022-09-29T07:24:10.129Z,41.7
2022-09-29T07:26:13.751Z,27.8
2022-09-29T07:28:15.776Z,38.8
2022-09-29T07:30:24.027Z,28.5
2022-09-29T07:32:27.842Z,26.4
2022-09-29T07:34:25.219Z,31.5
2022-09-29T07:36:27.281Z,25.2
2022-09-29T07:38:29.374Z,26
2022-09-29T07:40:31.471Z,41.8
2022-09-29T07:42:33.514Z,25.4
2022-09-29T07:44:38.843Z,29.2
2022-09-29T07:46:40.927Z,27.8
2022-09-29T07:48:42.995Z,20.3
2022-09-29T07:50:45.093Z,25.8
2022-09-29T07:52:47.172Z,25.6
2022-09-29T07:54:49.244Z,25.4
2022-09-29T07:56:51.352Z,25.7
2022-09-29T07:58:56.663Z,25.5
2022-09-29T08:00:58.847Z,20.7
2022-09-29T08:03:00.846Z,29.3
2022-09-29T08:05:07.341Z,32.6
2022-09-29T08:11:10.187Z,24
2022-09-29T08:17:18.838Z,29.8
2022-09-29T08:18:21.519Z,24.7
2022-09-29T08:20:23.667Z,25.3
2022-09-29T08:22:25.745Z,24.7
2022-09-29T08:24:27.854Z,21.3
2022-09-29T08:26:39.723Z,23.8
2022-09-29T08:28:35.349Z,23
2022-09-29T08:30:37.459Z,28.1
2022-09-29T08:32:39.589Z,28.3
2022-09-29T08:34:41.728Z,23.4
2022-09-29T08:36:43.850Z,22.9
2022-09-29T08:38:45.979Z,30.3
2022-09-29T08:40:51.381Z,20.8
2022-09-29T08:42:53.479Z,24.5
2022-09-29T08:44:59.731Z,24.5
2022-09-29T08:47:07.333Z,25.7
2022-09-29T08:48:59.900Z,24.3
2022-09-29T08:51:02.006Z,20.7
2022-09-29T08:53:04.174Z,25.4
2022-09-29T08:55:19.319Z,19.3
2022-09-29T08:57:11.668Z,22.8
2022-09-29T08:59:13.828Z,28.2
2022-09-29T09:01:15.998Z,24.7
2022-09-29T09:03:18.108Z,21.5
2022-09-29T09:05:20.259Z,25.2
2022-09-29T09:07:22.426Z,28.9
2022-09-29T09:09:27.809Z,28
2022-09-29T09:11:29.993Z,25.8
2022-09-29T09:13:32.140Z,20.1
2022-09-29T09:16:01.044Z,23.7
2022-09-29T09:18:03.196Z,23.6
2022-09-29T09:20:05.396Z,29.7
2022-09-29T09:24:13.010Z,27.3
2022-09-29T09:26:15.095Z,24.9
2022-09-29T09:28:17.268Z,24.6
2022-09-29T09:30:19.419Z,25
2022-09-29T09:32:21.591Z,32
2022-09-29T09:34:34.195Z,29.6
2022-09-29T09:36:33.420Z,29.6
2022-09-29T09:38:31.324Z,35
2022-09-29T09:40:33.479Z,36.1
2022-09-29T09:42:35.670Z,31.1
2022-09-29T09:44:37.842Z,29.6
2022-09-29T09:46:39.973Z,27.4
2022-09-29T09:50:47.581Z,31.4
2022-09-29T09:52:49.751Z,30.8
2022-09-29T09:58:56.263Z,31.2
2022-09-29T10:00:58.606Z,32.8
2022-09-29T10:07:08.184Z,31.3
2022-09-29T10:09:10.426Z,35.4
2022-09-29T10:10:13.073Z,34.9
2022-09-29T10:12:15.256Z,29.8
2022-09-29T10:14:17.409Z,31.7
2022-09-29T10:16:19.656Z,29.1
2022-09-29T10:18:25.051Z,29.2
2022-09-29T10:20:27.247Z,33.9
2022-09-29T10:22:29.392Z,29.3
2022-09-29T10:24:31.590Z,35.1
2022-09-29T10:26:33.765Z,30.7
2022-09-29T10:28:35.942Z,28.9
2022-09-29T10:30:38.162Z,25.7
2022-09-29T10:32:43.558Z,27.6
2022-09-29T10:34:45.746Z,24.9
2022-09-29T10:36:47.939Z,24.9
2022-09-29T10:38:50.036Z,29.5
2022-09-29T10:40:52.231Z,30.7
2022-09-29T10:42:54.458Z,28.9
2022-09-29T10:51:06.446Z,25.8
2022-09-29T10:53:10.162Z,28
2022-09-29T10:55:10.810Z,22.1
2022-09-29T10:57:12.924Z,20.4
2022-09-29T10:59:15.096Z,20.1
2022-09-29T11:06:27.464Z,19.2
2022-09-29T11:08:29.677Z,22
2022-09-29T11:10:31.872Z,23.1
2022-09-29T11:12:34.085Z,17.9
2022-09-29T11:14:39.435Z,17.7
2022-09-29T11:16:41.595Z,15.1
2022-09-29T11:18:43.667Z,13.5
2022-09-29T11:20:45.793Z,14
2022-09-29T11:22:47.997Z,13
2022-09-29T11:24:50.211Z,18
2022-09-29T11:26:52.411Z,16
2022-09-29T11:28:57.876Z,23.3
2022-09-29T11:31:00.002Z,23
2022-09-29T11:33:02.093Z,17
2022-09-29T11:35:04.204Z,19.4
2022-09-29T11:37:06.392Z,15
2022-09-29T11:39:08.642Z,10.1
2022-09-29T11:41:10.741Z,14.2
2022-09-29T11:43:15.966Z,15
2022-09-29T11:47:20.287Z,8.2
2022-09-29T11:49:22.395Z,10.4
2022-09-29T11:51:24.506Z,12.2
2022-09-29T11:53:26.731Z,7.7
2022-09-29T11:55:28.842Z,13.9
2022-09-29T11:57:34.068Z,11.3
2022-09-29T11:59:36.172Z,10.8
2022-09-29T12:01:38.282Z,12.5
2022-09-29T12:06:45.226Z,9.5
2022-09-29T12:08:47.348Z,10.5
2022-09-29T12:10:52.599Z,11.1
2022-09-29T12:12:54.703Z,6.7
2022-09-29T12:14:56.798Z,8.6
2022-09-29T12:16:59.027Z,5.8
2022-09-29T12:19:01.007Z,7.9
2022-09-29T12:21:03.155Z,6.7
2022-09-29T12:23:05.241Z,6.3
2022-09-29T12:25:10.601Z,5.9
2022-09-29T12:27:12.687Z,6.7
2022-09-29T12:31:17.061Z,4.5
2022-09-29T12:33:19.042Z,8.1
2022-09-29T12:35:21.131Z,6.7
2022-09-29T12:37:23.254Z,12.6
2022-09-29T12:39:28.532Z,6.2
2022-09-29T12:41:30.611Z,6.8
2022-09-29T12:43:32.717Z,4.1
2022-09-29T12:45:35.380Z,8.9
2022-09-29T12:47:36.950Z,8.2
2022-09-29T12:49:39.077Z,7.1
2022-09-29T12:51:41.177Z,4.7
2022-09-29T12:53:46.434Z,4.5
2022-09-29T12:55:48.550Z,5.3
2022-09-29T12:57:50.680Z,9.8
2022-09-29T13:00:19.347Z,3.8
2022-09-29T13:02:21.551Z,4.1
2022-09-29T13:04:23.689Z,4.6
2022-09-29T13:06:28.822Z,6.2
2022-09-29T13:08:30.945Z,4.5
2022-09-29T13:10:33.038Z,11.8
2022-09-29T13:12:35.165Z,4.8
2022-09-29T13:14:37.277Z,2.4
2022-09-29T13:16:39.388Z,4.2
2022-09-29T13:18:53.961Z,5.5
2022-09-29T13:20:48.285Z,12.6
2022-09-29T13:22:50.391Z,6.6
2022-09-29T13:24:52.719Z,32.2
2022-09-29T13:26:54.612Z,14
2022-09-29T13:28:56.732Z,8
2022-09-29T13:30:58.956Z,6.7
2022-09-29T13:33:00.971Z,2.5
2022-09-29T13:35:06.222Z,8.7
2022-09-29T13:37:08.433Z,3.4
2022-09-29T13:39:10.563Z,3.8
2022-09-29T13:41:12.664Z,3
2022-09-29T13:43:14.781Z,2.9
2022-09-29T13:45:16.905Z,5.4
2022-09-29T13:47:19.015Z,2.5
2022-09-29T13:51:26.419Z,5.1
2022-09-29T13:53:28.532Z,2.6
2022-09-29T13:56:33.290Z,2.7
2022-09-29T13:58:35.387Z,6.5
2022-09-29T14:00:37.509Z,5.8
2022-09-29T14:04:44.793Z,5.5
2022-09-29T14:06:46.898Z,5.1
2022-09-29T14:08:49.035Z,6
2022-09-29T14:10:51.156Z,7.8
2022-09-29T14:12:53.842Z,5.8
2022-09-29T14:14:55.367Z,11.9
2022-09-29T14:17:00.643Z,7
2022-09-29T14:19:02.748Z,2.5
2022-09-29T14:21:04.884Z,26
2022-09-29T14:23:07.013Z,15.9
2022-09-29T14:25:09.100Z,5.8
2022-09-29T14:27:11.224Z,6.3
2022-09-29T14:29:13.307Z,10.1
2022-09-29T14:31:18.652Z,4.2
2022-09-29T14:33:20.706Z,4.5
2022-09-29T14:35:22.788Z,3.3
2022-09-29T14:37:24.922Z,4.5
2022-09-29T14:39:27.521Z,4.1
2022-09-29T14:41:29.154Z,4.1
2022-09-29T14:45:36.524Z,7.3
2022-09-29T14:47:38.644Z,5.1
2022-09-29T14:49:42.635Z,6
2022-09-29T14:50:43.339Z,7.3
2022-09-29T14:56:49.724Z,7
2022-09-29T14:58:54.956Z,7.2
2022-09-29T15:00:57.063Z,4.2
2022-09-29T15:03:00.198Z,6.6
2022-09-29T15:05:01.300Z,6
2022-09-29T15:07:03.418Z,5.2
2022-09-29T15:09:05.592Z,7.2
2022-09-29T15:11:07.623Z,8.8
2022-09-29T15:13:12.905Z,5.4
2022-09-29T15:15:15.087Z,4.6
2022-09-29T15:17:17.179Z,6.9
2022-09-29T15:19:19.300Z,6.6
2022-09-29T15:23:23.556Z,11.1
2022-09-29T15:25:25.663Z,11.3
2022-09-29T15:29:33.079Z,8
2022-09-29T15:31:35.186Z,4.6
2022-09-29T15:41:48.918Z,11.6
2022-09-29T15:43:51.046Z,8
2022-09-29T15:45:53.210Z,28.9
2022-09-29T15:46:55.806Z,19.2
2022-09-29T15:48:57.926Z,8.7
2022-09-29T15:51:00.048Z,3.6
2022-09-29T15:53:02.158Z,11.8
2022-09-29T15:55:07.431Z,95.8
2022-09-29T15:57:09.552Z,22.5
2022-09-29T15:59:11.876Z,14.7
2022-09-29T16:01:14.139Z,18.6
2022-09-29T16:03:16.121Z,8.6
2022-09-29T16:05:18.227Z,73.6
2022-09-29T16:07:20.359Z,11.1
2022-09-29T16:09:25.658Z,7.4
2022-09-29T16:11:27.743Z,15.2
2022-09-29T16:13:29.852Z,11.7
2022-09-29T16:17:34.111Z,75
2022-09-29T16:21:38.350Z,17.8
2022-09-29T16:23:43.609Z,9.1
2022-09-29T16:25:45.762Z,5.3
2022-09-29T16:27:47.883Z,4.5
2022-09-29T16:29:50.026Z,4.4
2022-09-29T16:31:52.148Z,5
2022-09-29T16:33:54.243Z,3.2
2022-09-29T16:38:01.655Z,8.1
2022-09-29T16:40:03.782Z,6.9
2022-09-29T16:46:36.842Z,8.2
2022-09-29T16:48:38.822Z,6.7
2022-09-29T16:50:44.116Z,6.3
2022-09-29T16:52:46.213Z,7.1
2022-09-29T16:54:48.331Z,9.3
2022-09-29T16:56:50.468Z,16.5
2022-09-29T16:58:52.595Z,11.6
2022-09-29T17:00:54.716Z,10.4
2022-09-29T17:02:56.845Z,8.6
2022-09-29T17:05:02.075Z,8.8
2022-09-29T17:07:04.372Z,8.7
2022-09-29T17:09:06.390Z,8.2
2022-09-29T17:11:08.449Z,16.7
2022-09-29T17:13:10.527Z,8.1
2022-09-29T17:15:12.678Z,13.4
2022-09-29T17:17:14.902Z,12.9
2022-09-29T17:19:20.308Z,14.3
2022-09-29T17:21:22.254Z,8.5
2022-09-29T17:23:24.472Z,13.5
2022-09-29T17:25:26.664Z,26.5
2022-09-29T17:27:28.923Z,16
2022-09-29T17:29:31.111Z,14.4
2022-09-29T17:31:33.360Z,21
2022-09-29T17:33:38.756Z,24.1
2022-09-29T17:35:40.948Z,15.4
2022-09-29T17:37:43.043Z,18.9
2022-09-29T17:40:47.875Z,21.9
2022-09-29T17:42:50.001Z,27.9
2022-09-29T17:47:05.477Z,25.2
2022-09-29T17:48:59.512Z,21
2022-09-29T17:51:01.607Z,19
2022-09-29T17:53:03.723Z,21.6
2022-09-29T17:55:05.931Z,24
2022-09-29T17:57:08.030Z,29.6
2022-09-29T17:59:10.366Z,50.8
2022-09-29T18:01:15.633Z,37.7
2022-09-29T18:03:17.770Z,35.5
2022-09-29T18:05:19.886Z,23.2
2022-09-29T18:07:22.041Z,29.5
2022-09-29T18:09:24.277Z,23.4
2022-09-29T18:11:26.371Z,27.7
2022-09-29T18:13:28.562Z,27
2022-09-29T18:15:33.952Z,25.9
2022-09-29T18:17:36.116Z,51.3
2022-09-29T18:19:38.299Z,78.2
2022-09-29T18:21:40.491Z,33.8
2022-09-29T18:23:42.697Z,27.8
2022-09-29T18:25:47.702Z,26.2
2022-09-29T18:27:47.063Z,46.2
2022-09-29T18:29:52.436Z,29.9
2022-09-29T18:31:54.574Z,35.9
2022-09-29T18:33:56.737Z,21.8
2022-09-29T18:34:59.461Z,27.9
2022-09-29T18:41:06.063Z,19.2
2022-09-29T18:47:15.806Z,21.9
2022-09-29T18:49:18.338Z,25.3
2022-09-29T18:51:21.252Z,26.4
2022-09-29T18:53:22.382Z,19.5
2022-09-29T19:01:34.470Z,18.5
2022-09-29T19:03:36.512Z,17.8
2022-09-29T19:05:38.700Z,29.1
2022-09-29T19:07:40.904Z,36.1
2022-09-29T19:17:56.575Z,31.2
2022-09-29T19:19:58.738Z,36.2
2022-09-29T19:22:00.926Z,36.6
2022-09-29T19:24:03.106Z,42
2022-09-29T19:26:08.488Z,27.8
2022-09-29T19:28:10.679Z,32
2022-09-29T19:31:15.628Z,28.2
2022-09-29T19:35:19.877Z,30.8
2022-09-29T19:37:22.068Z,55.9
2022-09-29T19:39:27.447Z,60.1
2022-09-29T19:41:29.628Z,53.9
2022-09-29T19:43:31.767Z,56.1
2022-09-29T19:47:36.111Z,55.9
2022-09-29T19:49:38.271Z,58.3
2022-09-29T19:53:48.805Z,37.3
2022-09-29T19:57:50.159Z,35.8
2022-09-29T19:59:52.289Z,31.3
2022-09-29T20:01:54.530Z,43.1
2022-09-29T20:03:56.628Z,36.2
2022-09-29T20:08:04.163Z,38.8
2022-09-29T20:10:06.317Z,26.7
2022-09-29T20:12:08.478Z,33.3
2022-09-29T20:14:10.648Z,34.6
2022-09-29T20:16:12.912Z,37.2
2022-09-29T20:18:14.957Z,24.7
2022-09-29T20:20:17.102Z,27
2022-09-29T20:22:22.505Z,25.4
2022-09-29T20:24:24.633Z,25.7
2022-09-29T20:26:26.783Z,21.1
2022-09-29T20:28:55.720Z,29.3
2022-09-29T20:30:57.957Z,29.9
2022-09-29T20:33:00.037Z,29.2
2022-09-29T20:35:05.421Z,27.8
2022-09-29T20:37:07.570Z,25.8
2022-09-29T20:39:09.709Z,28.7
2022-09-29T20:41:11.833Z,29.7
2022-09-29T20:43:14.069Z,20.2
2022-09-29T20:45:16.213Z,22.5
2022-09-29T20:47:18.351Z,24.4
2022-09-29T20:49:23.741Z,22.6
2022-09-29T20:51:25.862Z,35.5
2022-09-29T20:53:28.004Z,24
2022-09-29T20:55:30.163Z,17.3
2022-09-29T20:57:32.265Z,31.4
2022-09-29T20:59:34.410Z,26.8
2022-09-29T21:01:36.618Z,27.5
2022-09-29T21:03:41.931Z,25.6
2022-09-29T21:05:44.055Z,32.2
2022-09-29T21:07:46.201Z,18.4
2022-09-29T21:11:50.458Z,19.9
2022-09-29T21:13:52.580Z,18.3
2022-09-29T21:15:54.777Z,12.8
2022-09-29T21:18:00.063Z,14.4
2022-09-29T21:20:02.459Z,12.3
2022-09-29T21:22:04.324Z,10.5
2022-09-29T21:23:06.999Z,10.5
2022-09-29T21:25:09.122Z,19.8
2022-09-29T21:27:11.273Z,13.5
2022-09-29T21:29:13.363Z,11.9
2022-09-29T21:31:18.847Z,12.6
2022-09-29T21:33:20.845Z,13
2022-09-29T21:35:22.999Z,19.1
2022-09-29T21:37:25.127Z,15.7
2022-09-29T21:39:27.226Z,18
2022-09-29T21:41:29.348Z,13.7
2022-09-29T21:43:31.455Z,17.1
2022-09-29T21:45:36.798Z,12.1
2022-09-29T21:47:38.928Z,9.3
2022-09-29T21:49:41.030Z,18.9
2022-09-29T21:51:43.167Z,18.2
2022-09-29T21:53:45.272Z,12.5
2022-09-29T21:55:47.390Z,10.3
2022-09-29T21:57:49.504Z,11.5
2022-09-29T21:59:54.832Z,9.8
2022-09-29T22:01:57.081Z,14
2022-09-29T22:03:59.095Z,13.6
2022-09-29T22:06:01.213Z,16.1
2022-09-29T22:08:03.320Z,32.5
2022-09-29T22:10:05.409Z,15.3
2022-09-29T22:12:07.513Z,15.1
2022-09-29T22:14:12.892Z,10.6
2022-09-29T22:16:15.050Z,8.9
2022-09-29T22:18:17.075Z,8.7
2022-09-29T22:19:24.172Z,12.4
2022-09-29T22:21:21.846Z,8.8
2022-09-29T22:27:31.407Z,5.6
2022-09-29T22:29:33.532Z,6.7
2022-09-29T22:31:35.679Z,17.6
2022-09-29T22:33:37.723Z,7.9
2022-09-29T22:35:39.822Z,7.9
2022-09-29T22:37:41.931Z,7.6
2022-09-29T22:39:44.031Z,6.4
2022-09-29T22:41:49.374Z,5.9
2022-09-29T22:43:51.467Z,6.2
2022-09-29T22:45:53.578Z,7.4
2022-09-29T22:47:55.670Z,9.9
2022-09-29T22:49:57.778Z,13.8
2022-09-29T22:51:59.867Z,9
2022-09-29T22:54:02.011Z,8.7
2022-09-29T22:56:07.319Z,13
2022-09-29T22:58:09.420Z,9.1
2022-09-29T23:02:13.647Z,4.3
2022-09-29T23:04:15.775Z,10.6
2022-09-29T23:06:17.787Z,5.7
2022-09-29T23:08:19.908Z,4.6
2022-09-29T23:10:25.230Z,5.4
2022-09-29T23:12:27.324Z,5.8
2022-09-29T23:14:29.415Z,4.9
2022-09-29T23:15:32.093Z,4.2
2022-09-29T23:17:34.169Z,3.7
2022-09-29T23:19:36.279Z,3.1
2022-09-29T23:21:38.346Z,5.7
2022-09-29T23:23:43.675Z,4.9
2022-09-29T23:25:45.776Z,3.4
2022-09-29T23:27:47.839Z,12.4
2022-09-29T23:29:49.956Z,3.1
2022-09-29T23:31:52.090Z,10.5
2022-09-29T23:33:54.121Z,5.2
2022-09-29T23:35:56.199Z,4.6
2022-09-29T23:42:05.700Z,3.9
2022-09-29T23:44:07.779Z,5.7
2022-09-29T23:46:09.909Z,11.7
2022-09-29T23:48:11.939Z,5.4
2022-09-29T23:50:14.035Z,4.4
2022-09-29T23:52:19.349Z,6.3
2022-09-29T23:54:21.416Z,4.2
2022-09-29T23:56:23.513Z,4.9
2022-09-29T23:58:25.555Z,6.6
